Main page
METAR-TAF:

METAR-TAF

Airports :

King Abdulaziz Air Base

Dhahran, Saudi Arabia

latitude: 26-16N, longitude: 050-09E, elevation: 26 m

Current weather observation

The report was made 44 minutes ago, at 15:00 UTC
Wind 5 kt from the East
Temperature 31°C
Humidity 55%
Pressure 1005 hPa
Visibility 10 km or more
no clouds below 1500 m and no cumulonimbus

METAR: OEDR 201500Z 08005KT CAVOK 31/21 Q1005 NOSIG

Time: 18:44 (15:44 UTC)

Forecast

The report was made 5 hours and 59 minutes ago, at 09:45 UTC
Forecast valid from 20 at 12 UTC to 21 at 18 UTC
Wind 15 kt from the East/Northeast
Visibility: 7000 m
Becoming
from 20 at 19 UTC to 20 at 21 UTC
Wind 5 kt from variable directions

TAF: OEDR 200945Z 2012/2118 07015KT 7000 NSC BECMG 2019/2021 VRB05KT

Weather observations and forecasts of more than 4000 airports (METAR and TAF reports).

The available stations are represented by yellow and red dots on the map.

Hover mouse over dot to see the name of the station.

Then click to see weather observations and forecasts.

To change the map : click on the green buttons with a black cross to zoom in, on the green button with a dash to zoom out, or on the green arrows for adjacent maps.


METAR-TAF: